This is the latest recevied weather packets stored in our database for station/object SQ9RHX-11. If no packets are shown the sender has not sent any weather packets the latest 10 day(s).
| Time | Temp. | Humidity | Pressure | Rain* | Wind** | Luminosity | Snow |
|---|---|---|---|---|---|---|---|
| 1788093516 | 29.44° C | 38% | 1014.9 hPa | - | - | - | - |
| 1788091716 | 28.33° C | 40% | 1014.9 hPa | - | - | - | - |
| 1788089916 | 27.78° C | 40% | 1014.9 hPa | - | - | - | - |
| 1788088117 | 27.78° C | 43% | 1015.4 hPa | - | - | - | - |
| 1788086317 | 27.22° C | 42% | 1015.5 hPa | - | - | - | - |
| 1788084517 | 26.11° C | 46% | 1015.7 hPa | - | - | - | - |
| 1788080918 | 25° C | 49% | 1015.9 hPa | - | - | - | - |
| 1788079118 | 23.89° C | 53% | 1016.2 hPa | - | - | - | - |
| 1788077319 | 22.22° C | 61% | 1016.2 hPa | - | - | - | - |
| 1788075519 | 21.67° C | 64% | 1016.3 hPa | - | - | - | - |
| 1788073719 | 19.44° C | 70% | 1016.4 hPa | - | - | - | - |
| 1788071919 | 17.78° C | 75% | 1016.2 hPa | - | - | - | - |
| 1788070119 | 16.67° C | 79% | 1016.2 hPa | - | - | - | - |
| 1788068319 | 15° C | 84% | 1016.4 hPa | - | - | - | - |
| 1788066520 | 14.44° C | 87% | 1016.3 hPa | - | - | - | - |
| 1788064720 | 12.22° C | 87% | 1016.3 hPa | - | - | - | - |
| 1788062921 | 11.67° C | 87% | 1016.3 hPa | - | - | - | - |
| 1788061120 | 11.11° C | 86% | 1016.5 hPa | - | - | - | - |
| 1788059321 | 11.67° C | 86% | 1016.5 hPa | - | - | - | - |
| 1788057522 | 11.11° C | 86% | 1016.6 hPa | - | - | - | - |
| 1788055723 | 11.11° C | 86% | 1016.7 hPa | - | - | - | - |
| 1788053923 | 10.56° C | 86% | 1016.7 hPa | - | - | - | - |
| 1788052123 | 11.11° C | 85% | 1016.7 hPa | - | - | - | - |
| 1788050324 | 11.11° C | 84% | 1016.8 hPa | - | - | - | - |
| 1788048524 | 11.67° C | 84% | 1016.8 hPa | - | - | - | - |
* Rain since midnight (hover to see other rain measurements)
** Current wind speed in m/s (hover to see current wind gust speed)